Time;durP1;ratioP1;P1;durP2;ratioP2;P2;SDS_P1;SDS_P2;PMS_P1;PMS_P2;Temp;Humidity;BMP_temperature;BMP_pressure;BME280_temperature;BME280_humidity;BME280_pressure;Samples;Min_cycle;Max_cycle;Signal;HPM_P1;HPM_P2
2022/03/16 00:01:12;;;;;;;10.93;4.80;;;;;;;9.23;100.00;95828.97;5116171;28;20254;-53
2022/03/16 00:03:38;;;;;;;9.47;4.90;;;;;;;9.23;100.00;95829.78;5117653;28;20229;-53
2022/03/16 00:06:03;;;;;;;12.43;5.30;;;;;;;9.22;100.00;95827.44;5119716;28;20185;-47
2022/03/16 00:08:29;;;;;;;10.43;4.97;;;;;;;9.20;100.00;95835.97;5119518;28;20242;-47
2022/03/16 00:10:56;;;;;;;12.87;4.87;;;;;;;9.19;100.00;95839.88;5119750;28;20201;-46
2022/03/16 00:13:21;;;;;;;9.67;4.53;;;;;;;9.19;100.00;95839.88;5120115;28;20268;-45
2022/03/16 00:15:46;;;;;;;12.20;4.70;;;;;;;9.18;100.00;95843.75;5119791;28;20219;-45
2022/03/16 00:18:13;;;;;;;11.83;4.87;;;;;;;9.18;100.00;95843.75;5119413;28;20191;-45
2022/03/16 00:20:38;;;;;;;12.20;5.07;;;;;;;9.18;100.00;95845.72;5137520;28;20210;-51
2022/03/16 00:23:05;;;;;;;13.00;5.50;;;;;;;9.16;100.00;95843.38;5119517;28;20697;-57
2022/03/16 00:25:30;;;;;;;12.53;5.60;;;;;;;9.09;100.00;95851.50;5119302;28;20199;-47
2022/03/16 00:27:55;;;;;;;11.33;5.40;;;;;;;9.07;100.00;95859.25;5119405;28;20270;-48
2022/03/16 00:30:20;;;;;;;11.90;6.07;;;;;;;9.03;100.00;95858.47;5119761;28;20255;-49
2022/03/16 00:32:46;;;;;;;13.60;6.10;;;;;;;8.99;100.00;95852.22;5119240;28;20543;-51
2022/03/16 00:35:11;;;;;;;15.63;5.97;;;;;;;8.96;100.00;95860.38;5119034;28;20182;-49
2022/03/16 00:37:36;;;;;;;12.03;5.90;;;;;;;8.93;100.00;95866.59;5119237;28;20274;-52
2022/03/16 00:40:02;;;;;;;14.57;6.47;;;;;;;8.93;100.00;95859.19;5119028;28;20187;-58
2022/03/16 00:42:27;;;;;;;10.60;6.23;;;;;;;8.90;100.00;95862.69;5119471;28;20197;-49
2022/03/16 00:44:54;;;;;;;9.60;6.97;;;;;;;8.86;100.00;95864.59;5119117;28;20323;-46
2022/03/16 00:47:19;;;;;;;11.77;7.27;;;;;;;8.82;100.00;95858.34;5119476;28;20190;-48
2022/03/16 00:49:45;;;;;;;14.63;6.80;;;;;;;8.81;100.00;95864.97;5118972;28;20191;-44
2022/03/16 00:52:10;;;;;;;11.60;6.87;;;;;;;8.79;100.00;95870.03;5118955;28;20270;-47
2022/03/16 00:54:35;;;;;;;11.17;6.73;;;;;;;8.77;100.00;95864.16;5135811;28;20276;-46
2022/03/16 00:57:01;;;;;;;11.43;7.13;;;;;;;8.79;100.00;95861.06;5119063;28;20187;-46
2022/03/16 00:59:26;;;;;;;11.37;7.97;;;;;;;8.77;100.00;95866.09;5118932;28;20275;-45
2022/03/16 01:01:52;;;;;;;13.33;7.10;;;;;;;8.77;100.00;95856.00;5119231;27;20211;-53
2022/03/16 01:04:18;;;;;;;12.43;7.57;;;;;;;8.75;100.00;95858.28;5118788;28;20213;-54
2022/03/16 01:06:43;;;;;;;17.20;7.53;;;;;;;8.74;100.00;95855.97;5118771;28;20237;-54
2022/03/16 01:09:08;;;;;;;13.07;8.10;;;;;;;8.73;100.00;95855.19;5118645;28;20240;-53
2022/03/16 01:11:34;;;;;;;17.13;8.40;;;;;;;8.73;100.00;95857.91;5118795;28;20546;-54
2022/03/16 01:14:00;;;;;;;14.40;8.57;;;;;;;8.74;100.00;95850.53;5119129;28;20195;-54
2022/03/16 01:16:25;;;;;;;12.70;9.37;;;;;;;8.72;100.00;95853.63;5117950;28;20179;-58
2022/03/16 01:18:50;;;;;;;11.87;9.57;;;;;;;8.70;100.00;95849.72;5118499;28;20181;-58
2022/03/16 01:21:15;;;;;;;15.30;10.10;;;;;;;8.70;100.00;95845.06;5118466;28;20203;-54
2022/03/16 01:23:41;;;;;;;18.60;10.97;;;;;;;8.68;100.00;95861.00;5118332;28;20214;-53
2022/03/16 01:26:07;;;;;;;15.33;11.20;;;;;;;8.68;100.00;95847.38;5118630;28;20183;-53
2022/03/16 01:28:33;;;;;;;14.07;11.20;;;;;;;8.66;100.00;95855.13;5118371;28;20184;-54
2022/03/16 01:31:00;;;;;;;15.03;11.23;;;;;;;8.69;100.00;95845.44;5118924;28;20199;-54
2022/03/16 01:33:25;;;;;;;16.43;11.97;;;;;;;8.67;100.00;95845.81;5118772;28;20271;-54
2022/03/16 01:35:51;;;;;;;16.43;11.53;;;;;;;8.67;100.00;95839.59;5119013;28;20632;-54
2022/03/16 01:38:16;;;;;;;15.40;11.67;;;;;;;8.64;100.00;95841.13;5118925;28;20190;-54
2022/03/16 01:40:42;;;;;;;14.67;11.70;;;;;;;8.65;100.00;95837.25;5118589;28;20187;-56
2022/03/16 01:43:07;;;;;;;16.23;11.60;;;;;;;8.65;100.00;95848.16;5118435;28;20279;-55
2022/03/16 01:45:32;;;;;;;15.63;12.03;;;;;;;8.60;100.00;95853.16;5119062;28;20188;-53
2022/03/16 01:47:58;;;;;;;15.93;11.73;;;;;;;8.61;100.00;95850.06;5118515;28;20180;-55
2022/03/16 01:50:23;;;;;;;13.60;12.00;;;;;;;8.58;100.00;95842.66;5118366;28;20203;-54
2022/03/16 01:52:48;;;;;;;16.60;11.90;;;;;;;8.55;100.00;95843.41;5118614;28;20183;-54
2022/03/16 01:55:14;;;;;;;18.33;11.57;;;;;;;8.55;100.00;95854.28;5118319;28;20194;-58
2022/03/16 01:57:42;;;;;;;13.20;11.10;;;;;;;8.48;100.00;95846.06;5118014;28;20591;-53
2022/03/16 02:00:08;;;;;;;15.80;11.63;;;;;;;8.50;100.00;95848.41;5118315;28;20210;-54
2022/03/16 02:02:33;;;;;;;19.40;12.03;;;;;;;8.51;100.00;95845.31;5117401;28;20202;-54
2022/03/16 02:04:59;;;;;;;15.70;11.47;;;;;;;8.52;100.00;95848.84;5117917;28;20186;-53
2022/03/16 02:07:24;;;;;;;14.47;12.50;;;;;;;8.52;100.00;95844.16;5117900;28;20192;-55
2022/03/16 02:09:52;;;;;;;18.67;13.20;;;;;;;8.54;100.00;95855.47;5118285;28;20220;-51
2022/03/16 02:12:17;;;;;;;18.43;12.20;;;;;;;8.56;100.00;95850.41;5117594;28;20318;-58
2022/03/16 02:14:42;;;;;;;13.83;11.63;;;;;;;8.53;100.00;95834.06;5117736;28;20207;-56
2022/03/16 02:17:08;;;;;;;16.27;12.00;;;;;;;8.54;100.00;95852.75;5117878;28;20270;-57
2022/03/16 02:19:34;;;;;;;16.50;12.80;;;;;;;8.54;100.00;95852.75;5117731;28;20191;-57
2022/03/16 02:22:02;;;;;;;16.80;12.43;;;;;;;8.56;100.00;95853.13;5117639;28;20274;-57
2022/03/16 02:24:30;;;;;;;16.13;12.43;;;;;;;8.56;100.00;95847.69;5118092;28;20682;-55
2022/03/16 02:26:57;;;;;;;13.87;12.07;;;;;;;8.57;100.00;95846.53;5116065;28;20190;-57
2022/03/16 02:29:22;;;;;;;13.87;12.17;;;;;;;8.57;100.00;95857.44;5117639;28;20194;-57
2022/03/16 02:31:48;;;;;;;18.17;12.93;;;;;;;8.55;100.00;95848.84;5134630;28;20215;-53
2022/03/16 02:34:13;;;;;;;18.07;13.70;;;;;;;8.56;100.00;95852.38;5118113;28;20194;-53
2022/03/16 02:36:39;;;;;;;14.37;12.57;;;;;;;8.56;100.00;95860.53;5117758;28;20187;-54
2022/03/16 02:39:04;;;;;;;18.57;13.00;;;;;;;8.56;100.00;95861.28;5117182;28;20179;-53
2022/03/16 02:41:30;;;;;;;16.97;13.27;;;;;;;8.53;100.00;95862.03;5117495;28;20192;-52
2022/03/16 02:43:55;;;;;;;18.67;14.33;;;;;;;8.55;100.00;95862.47;5117700;28;20214;-55
2022/03/16 02:46:20;;;;;;;19.43;14.27;;;;;;;8.51;100.00;95869.81;5117493;28;20183;-56
2022/03/16 02:48:45;;;;;;;20.13;13.40;;;;;;;8.51;100.00;95869.81;5117545;28;20212;-53
2022/03/16 02:51:11;;;;;;;20.47;14.27;;;;;;;8.54;100.00;95869.06;5116935;28;20237;-53
2022/03/16 02:53:36;;;;;;;17.43;13.67;;;;;;;8.53;100.00;95872.94;5117072;28;20193;-52
2022/03/16 02:56:02;;;;;;;18.17;14.07;;;;;;;8.55;100.00;95875.28;5117706;28;20274;-49
2022/03/16 02:58:27;;;;;;;18.17;14.43;;;;;;;8.54;100.00;95882.69;5117347;28;20282;-53
2022/03/16 03:00:52;;;;;;;18.47;15.10;;;;;;;8.52;100.00;95881.50;5117064;28;20259;-52
2022/03/16 03:03:17;;;;;;;19.10;15.20;;;;;;;8.51;100.00;95880.69;5116967;28;20284;-53
2022/03/16 03:05:43;;;;;;;18.93;15.07;;;;;;;8.51;100.00;95877.97;5117524;28;20187;-52
2022/03/16 03:08:08;;;;;;;19.63;15.13;;;;;;;8.52;100.00;95886.94;5117847;28;20187;-58
2022/03/16 03:10:34;;;;;;;19.47;15.20;;;;;;;8.52;100.00;95879.53;5116580;28;20213;-58
2022/03/16 03:12:59;;;;;;;21.00;15.23;;;;;;;8.46;100.00;95885.72;5117110;28;20191;-57
2022/03/16 03:15:24;;;;;;;21.30;14.80;;;;;;;8.43;100.00;95884.53;5117447;28;20283;-58
2022/03/16 03:17:49;;;;;;;24.40;16.70;;;;;;;8.36;100.00;95880.97;5116955;28;20224;-58
2022/03/16 03:20:15;;;;;;;21.90;16.13;;;;;;;8.30;100.00;95885.97;5116761;28;20191;-57
2022/03/16 03:22:41;;;;;;;20.73;16.03;;;;;;;8.25;100.00;95886.31;5116895;28;20184;-58
2022/03/16 03:25:11;;;;;;;23.33;16.47;;;;;;;8.18;100.00;95894.41;5116471;28;20188;-57
2022/03/16 03:27:36;;;;;;;22.33;16.87;;;;;;;8.14;100.00;95887.34;5133918;28;20658;-55
2022/03/16 03:30:02;;;;;;;25.00;15.80;;;;;;;8.16;100.00;95896.69;5117105;28;20219;-58
2022/03/16 03:32:28;;;;;;;23.07;16.13;;;;;;;8.12;100.00;95897.84;5133856;28;20202;-58
2022/03/16 03:34:55;;;;;;;23.83;17.00;;;;;;;8.03;100.00;95898.13;5116471;28;20543;-58
2022/03/16 03:37:22;;;;;;;22.87;16.67;;;;;;;8.05;100.00;95905.94;5116595;27;20270;-57
2022/03/16 03:39:48;;;;;;;23.43;16.60;;;;;;;7.95;100.00;95899.22;5137585;28;20191;-58
2022/03/16 03:42:13;;;;;;;23.63;16.73;;;;;;;7.89;100.00;95903.44;5120213;28;20205;-57
2022/03/16 03:44:39;;;;;;;24.40;17.47;;;;;;;7.85;100.00;95908.06;5138397;28;20191;-55
2022/03/16 03:47:05;;;;;;;24.13;17.03;;;;;;;7.86;100.00;95909.63;5120027;28;20195;-58
2022/03/16 03:49:36;;;;;;;23.13;17.10;;;;;;;7.85;100.00;95902.63;5120206;28;20250;-58
2022/03/16 03:52:02;;;;;;;25.03;17.20;;;;;;;7.87;100.00;95911.16;5137005;28;20199;-58
2022/03/16 03:54:28;;;;;;;25.37;17.87;;;;;;;7.85;100.00;95918.13;5119708;28;20283;-58
2022/03/16 03:56:53;;;;;;;25.60;17.43;;;;;;;7.86;100.00;95915.06;5120287;28;20230;-58
2022/03/16 03:59:20;;;;;;;27.30;18.27;;;;;;;7.79;100.00;95912.25;5137075;28;20191;-58
2022/03/16 04:01:45;;;;;;;23.37;16.77;;;;;;;7.73;100.00;95916.47;5119806;27;20229;-53
2022/03/16 04:04:11;;;;;;;22.23;16.23;;;;;;;7.58;100.00;95917.44;5120301;28;20183;-45
2022/03/16 04:06:36;;;;;;;19.37;15.03;;;;;;;7.62;100.00;95921.00;5120042;28;20195;-58
2022/03/16 04:09:01;;;;;;;21.23;15.77;;;;;;;7.58;100.00;95925.59;5119647;28;20522;-57
2022/03/16 04:11:26;;;;;;;19.20;14.40;;;;;;;7.59;100.00;95927.19;5119646;28;20234;-58
2022/03/16 04:13:52;;;;;;;21.63;15.17;;;;;;;7.52;100.00;95927.09;5119812;28;20206;-58
2022/03/16 04:16:17;;;;;;;19.63;14.77;;;;;;;7.56;100.00;95927.91;5119563;28;20186;-59
2022/03/16 04:18:43;;;;;;;19.10;14.07;;;;;;;7.58;100.00;95932.97;5119784;28;20632;-59
2022/03/16 04:21:08;;;;;;;20.43;14.60;;;;;;;7.48;100.00;95934.44;5119656;28;20187;-56
2022/03/16 04:23:33;;;;;;;17.93;13.60;;;;;;;7.53;100.00;95938.72;5119816;28;20209;-58
2022/03/16 04:25:59;;;;;;;17.07;12.77;;;;;;;7.51;100.00;95947.28;5137541;28;20215;-58
2022/03/16 04:28:24;;;;;;;19.03;14.60;;;;;;;7.53;100.00;95950.41;5119646;28;20198;-58
2022/03/16 04:30:49;;;;;;;21.67;14.10;;;;;;;7.28;100.00;95953.97;5119044;28;20203;-59
2022/03/16 04:33:15;;;;;;;20.37;14.13;;;;;;;7.21;100.00;95953.84;5119955;28;20174;-59
2022/03/16 04:35:40;;;;;;;20.60;14.63;;;;;;;7.23;100.00;95959.69;5119662;28;20186;-59
2022/03/16 04:38:08;;;;;;;20.53;14.40;;;;;;;7.09;100.00;95967.63;5120154;28;20185;-59
2022/03/16 04:40:33;;;;;;;19.23;13.80;;;;;;;7.02;100.00;95965.59;5119244;28;20250;-59
2022/03/16 04:42:59;;;;;;;20.77;15.00;;;;;;;7.05;100.00;95973.03;5119598;28;20209;-57
2022/03/16 04:45:24;;;;;;;18.33;13.40;;;;;;;6.98;100.00;95972.91;5119515;28;20632;-57
2022/03/16 04:47:49;;;;;;;19.40;14.07;;;;;;;6.97;100.00;95970.56;5119712;28;20183;-58
2022/03/16 04:50:15;;;;;;;20.30;14.37;;;;;;;6.93;100.00;95970.53;5117828;28;20199;-57
2022/03/16 04:52:45;;;;;;;20.37;14.63;;;;;;;6.92;100.00;95966.22;5119434;28;20203;-57
2022/03/16 04:55:11;;;;;;;22.50;15.17;;;;;;;6.93;100.00;95964.31;5119141;28;20194;-57
2022/03/16 04:57:37;;;;;;;19.67;14.63;;;;;;;6.88;100.00;95968.09;5119034;28;20187;-58
2022/03/16 05:00:03;;;;;;;21.67;14.33;;;;;;;6.83;100.00;95976.56;5118785;28;20181;-56
2022/03/16 05:02:28;;;;;;;20.00;14.43;;;;;;;6.80;100.00;95993.59;5118758;28;20242;-55
2022/03/16 05:04:54;;;;;;;19.80;14.67;;;;;;;6.61;100.00;95993.66;5119087;28;20194;-56
2022/03/16 05:07:19;;;;;;;22.07;15.73;;;;;;;6.54;100.00;96007.09;5118913;28;20178;-56
2022/03/16 05:09:44;;;;;;;24.83;16.63;;;;;;;6.37;100.00;96010.28;5118796;28;20183;-55
2022/03/16 05:12:10;;;;;;;26.10;17.47;;;;;;;6.23;100.00;96018.19;5118888;28;20205;-55
2022/03/16 05:14:35;;;;;;;30.10;19.30;;;;;;;6.17;100.00;96019.63;5119216;28;20192;-57
2022/03/16 05:17:00;;;;;;;30.50;19.60;;;;;;;6.10;100.00;96019.47;5118450;28;20280;-50
2022/03/16 05:19:26;;;;;;;28.40;19.13;;;;;;;6.00;100.00;96020.84;5119063;28;20194;-48
2022/03/16 05:21:51;;;;;;;26.03;18.03;;;;;;;5.91;100.00;96024.94;5118666;28;20186;-46
2022/03/16 05:24:20;;;;;;;26.60;18.50;;;;;;;5.95;100.00;96033.91;5118716;28;20268;-50
2022/03/16 05:26:45;;;;;;;26.73;17.33;;;;;;;5.89;100.00;96035.31;5118381;28;20182;-50
2022/03/16 05:29:10;;;;;;;27.70;18.37;;;;;;;5.84;100.00;96038.34;5118218;28;20616;-47
2022/03/16 05:31:36;;;;;;;25.17;16.83;;;;;;;5.84;100.00;96035.63;5118134;28;20543;-48
2022/03/16 05:34:02;;;;;;;28.47;18.67;;;;;;;5.79;100.00;96049.44;5119249;28;20233;-48
2022/03/16 05:36:27;;;;;;;28.70;18.77;;;;;;;5.73;100.00;96053.56;5118592;28;20192;-60
2022/03/16 05:38:52;;;;;;;26.83;18.30;;;;;;;5.65;100.00;96051.84;5118303;28;20540;-59
2022/03/16 05:41:18;;;;;;;29.13;18.23;;;;;;;5.62;100.00;96052.56;5118319;28;20224;-60
2022/03/16 05:43:43;;;;;;;26.50;17.70;;;;;;;5.54;100.00;96057.03;5118119;28;20189;-61
2022/03/16 05:46:09;;;;;;;27.93;18.03;;;;;;;5.62;100.00;96063.38;5118069;28;20281;-61
2022/03/16 05:48:34;;;;;;;26.17;18.03;;;;;;;5.67;100.00;96061.19;5118458;28;20184;-60
2022/03/16 05:50:59;;;;;;;26.03;18.03;;;;;;;5.62;100.00;96063.38;5136159;28;20233;-63
2022/03/16 05:53:25;;;;;;;28.33;18.00;;;;;;;5.64;100.00;96077.34;5118615;28;20224;-58
2022/03/16 05:55:50;;;;;;;30.20;19.23;;;;;;;5.61;100.00;96067.25;5117699;28;20220;-60
2022/03/16 05:58:16;;;;;;;27.60;18.47;;;;;;;5.59;100.00;96069.50;5118118;28;20281;-60
2022/03/16 06:00:42;;;;;;;29.83;19.07;;;;;;;5.62;100.00;96076.94;5118488;27;20186;-64
2022/03/16 06:03:08;;;;;;;31.47;19.80;;;;;;;5.56;100.00;96078.34;5117653;28;20200;-60
2022/03/16 06:05:33;;;;;;;30.93;19.53;;;;;;;5.57;100.00;96079.94;5118181;28;20180;-60
2022/03/16 06:07:59;;;;;;;29.90;19.27;;;;;;;5.53;100.00;96077.13;5117793;28;20186;-60
2022/03/16 06:10:25;;;;;;;29.13;18.80;;;;;;;5.56;100.00;96075.63;5117672;28;20196;-57
2022/03/16 06:12:51;;;;;;;29.33;19.13;;;;;;;5.53;100.00;96076.34;5117691;28;20303;-57
2022/03/16 06:15:17;;;;;;;30.83;20.07;;;;;;;5.57;100.00;96082.63;5117614;28;20645;-48
2022/03/16 06:17:42;;;;;;;30.93;19.37;;;;;;;5.55;100.00;96084.91;5117638;28;20247;-53
2022/03/16 06:20:08;;;;;;;26.40;18.20;;;;;;;5.61;100.00;96078.06;5117311;28;20178;-51
2022/03/16 06:22:33;;;;;;;28.23;19.63;;;;;;;5.64;100.00;96082.75;5117551;28;20181;-53
2022/03/16 06:24:58;;;;;;;35.20;21.23;;;;;;;5.65;100.00;96087.81;5117621;28;20186;-50
2022/03/16 06:27:24;;;;;;;46.43;29.17;;;;;;;5.74;100.00;96087.63;5117590;28;20283;-50
2022/03/16 06:29:49;;;;;;;33.03;20.17;;;;;;;5.72;100.00;96089.94;5117276;28;20202;-52
2022/03/16 06:32:14;;;;;;;30.37;20.03;;;;;;;5.71;100.00;96091.84;5117372;28;20212;-44
2022/03/16 06:34:39;;;;;;;30.30;20.33;;;;;;;5.80;100.00;96092.41;5117302;28;20220;-44
2022/03/16 06:37:05;;;;;;;30.77;20.07;;;;;;;5.79;100.00;96095.50;5117128;28;20205;-45
2022/03/16 06:39:30;;;;;;;31.50;20.03;;;;;;;5.85;100.00;96096.81;5117295;28;20235;-44
2022/03/16 06:41:55;;;;;;;31.03;20.20;;;;;;;5.87;100.00;96098.00;5117887;28;20181;-44
2022/03/16 06:44:21;;;;;;;28.83;19.57;;;;;;;5.88;100.00;96104.22;5117146;28;20707;-44
2022/03/16 06:46:48;;;;;;;32.33;20.40;;;;;;;5.90;100.00;96097.31;5117075;28;20219;-48
2022/03/16 06:49:13;;;;;;;30.10;20.10;;;;;;;5.91;100.00;96103.53;5117751;28;20271;-46
2022/03/16 06:51:39;;;;;;;30.33;18.90;;;;;;;5.92;100.00;96113.22;5117281;28;20226;-53
2022/03/16 06:54:04;;;;;;;28.40;18.47;;;;;;;5.94;100.00;96108.25;5117438;28;20191;-56
2022/03/16 06:56:29;;;;;;;29.20;19.03;;;;;;;5.90;100.00;96105.44;5117119;28;20269;-56
2022/03/16 06:58:54;;;;;;;27.33;17.70;;;;;;;5.82;100.00;96121.91;5116817;28;20182;-54
2022/03/16 07:01:20;;;;;;;28.77;17.73;;;;;;;5.79;100.00;96123.38;5117036;28;20280;-56
2022/03/16 07:03:45;;;;;;;26.53;18.07;;;;;;;5.82;100.00;96128.09;5117155;28;20209;-53
2022/03/16 07:06:11;;;;;;;29.50;19.60;;;;;;;5.78;100.00;96126.44;5116882;28;20216;-43
2022/03/16 07:08:36;;;;;;;26.20;17.27;;;;;;;5.78;100.00;96131.84;5116842;28;20181;-42
2022/03/16 07:11:02;;;;;;;30.67;19.17;;;;;;;5.72;100.00;96128.63;5116578;28;20245;-43
2022/03/16 07:13:27;;;;;;;27.30;18.93;;;;;;;5.75;100.00;96132.53;5116526;28;20195;-50
2022/03/16 07:15:52;;;;;;;32.00;20.40;;;;;;;5.77;100.00;96131.06;5116465;28;20189;-45
2022/03/16 07:18:19;;;;;;;27.97;19.17;;;;;;;5.72;100.00;96128.63;5117460;28;20192;-45
2022/03/16 07:20:47;;;;;;;29.20;20.20;;;;;;;5.72;100.00;96134.03;5116983;28;20189;-46
2022/03/16 07:23:14;;;;;;;30.80;20.63;;;;;;;5.74;100.00;96141.81;5133945;28;20191;-44
2022/03/16 07:25:42;;;;;;;30.60;19.90;;;;;;;5.66;100.00;96140.09;5134001;28;20656;-49
2022/03/16 07:28:08;;;;;;;29.83;20.20;;;;;;;5.71;100.00;96142.53;5116552;28;20180;-59
2022/03/16 07:30:34;;;;;;;30.20;20.73;;;;;;;5.75;100.00;96137.97;5116459;28;20209;-58
2022/03/16 07:32:59;;;;;;;32.60;21.10;;;;;;;5.80;100.00;96151.25;5116400;28;20642;-59
2022/03/16 07:35:28;;;;;;;32.23;21.47;;;;;;;5.73;100.00;96146.47;5116979;28;20191;-60
2022/03/16 07:37:55;;;;;;;32.40;21.40;;;;;;;5.83;100.00;96148.63;5116123;28;20177;-59
2022/03/16 07:40:21;;;;;;;32.53;21.67;;;;;;;5.83;100.00;96145.16;5116673;28;20193;-59
2022/03/16 07:42:47;;;;;;;30.07;20.70;;;;;;;5.86;100.00;96149.84;5116892;28;20186;-49
2022/03/16 07:45:15;;;;;;;31.30;20.63;;;;;;;5.91;100.00;96152.31;5116528;28;20196;-50
2022/03/16 07:47:41;;;;;;;30.63;21.47;;;;;;;5.83;100.00;96156.00;5116231;28;20184;-47
2022/03/16 07:50:10;;;;;;;32.07;20.00;;;;;;;5.83;100.00;96159.47;5115976;28;20198;-47
2022/03/16 07:52:36;;;;;;;28.93;20.13;;;;;;;5.82;100.00;96159.84;5116157;28;20188;-45
2022/03/16 07:55:02;;;;;;;28.93;18.93;;;;;;;5.83;100.00;96158.72;5116082;28;20186;-47
2022/03/16 07:57:27;;;;;;;29.47;20.33;;;;;;;5.88;100.00;96169.28;5116485;28;20195;-51
2022/03/16 07:59:52;;;;;;;29.37;19.13;;;;;;;5.90;100.00;96167.00;5115879;28;20226;-53
2022/03/16 08:02:18;;;;;;;28.40;19.70;;;;;;;5.92;100.00;96160.09;5116176;28;20200;-58
2022/03/16 08:04:43;;;;;;;32.83;22.43;;;;;;;5.96;100.00;96160.16;5116147;28;20195;-55
2022/03/16 08:07:11;;;;;;;27.67;18.93;;;;;;;5.95;100.00;96158.59;5116102;28;20189;-55
2022/03/16 08:09:36;;;;;;;28.47;19.40;;;;;;;5.91;100.00;96158.50;5116500;28;20237;-55
2022/03/16 08:12:03;;;;;;;27.73;18.63;;;;;;;6.01;100.00;96162.59;5115801;28;20206;-51
2022/03/16 08:14:28;;;;;;;27.17;18.50;;;;;;;5.95;100.00;96158.59;5115735;28;20182;-54
2022/03/16 08:16:53;;;;;;;26.83;18.40;;;;;;;5.94;100.00;96167.88;5116394;28;20197;-54
2022/03/16 08:19:21;;;;;;;25.47;17.07;;;;;;;5.93;100.00;96164.34;5116473;28;20181;-65
2022/03/16 08:21:46;;;;;;;27.03;18.47;;;;;;;5.95;100.00;96164.00;5134203;28;20193;-50
2022/03/16 08:24:11;;;;;;;28.23;19.00;;;;;;;5.96;100.00;96168.28;5116516;28;20182;-51
2022/03/16 08:26:37;;;;;;;27.07;18.67;;;;;;;6.10;100.00;96165.88;5119645;28;20197;-47
2022/03/16 08:29:02;;;;;;;29.20;19.23;;;;;;;6.04;100.00;96170.78;5119365;28;20183;-46
2022/03/16 08:31:27;;;;;;;28.87;19.47;;;;;;;6.16;100.00;96173.38;5119384;28;20225;-48
2022/03/16 08:33:53;;;;;;;25.57;18.20;;;;;;;6.21;100.00;96175.03;5118969;28;20179;-49
2022/03/16 08:36:18;;;;;;;28.47;19.17;;;;;;;6.25;100.00;96173.16;5119968;28;20185;-47
2022/03/16 08:38:43;;;;;;;29.70;18.47;;;;;;;6.25;100.00;96173.16;5118939;28;20187;-53
2022/03/16 08:41:10;;;;;;;29.00;19.07;;;;;;;6.18;100.00;96186.56;5119301;28;20554;-60
2022/03/16 08:43:37;;;;;;;28.47;19.10;;;;;;;6.14;100.00;96183.78;5119169;28;20182;-59
2022/03/16 08:46:03;;;;;;;30.07;20.17;;;;;;;6.18;100.00;96179.22;5136701;28;20199;-59
2022/03/16 08:48:29;;;;;;;26.43;19.13;;;;;;;6.25;100.00;96187.53;5119096;28;20700;-59
2022/03/16 08:50:54;;;;;;;29.10;18.27;;;;;;;6.31;100.00;96177.94;5118696;28;20203;-60
2022/03/16 08:53:19;;;;;;;27.07;18.60;;;;;;;6.23;100.00;96180.88;5118853;28;20198;-59
2022/03/16 08:55:45;;;;;;;29.67;18.87;;;;;;;6.14;100.00;96188.44;5118908;28;20215;-59
2022/03/16 08:58:13;;;;;;;28.53;19.57;;;;;;;6.18;100.00;96183.84;5118681;28;20228;-45
2022/03/16 09:00:39;;;;;;;27.03;18.43;;;;;;;6.17;100.00;96193.16;5118709;28;20206;-45
2022/03/16 09:03:04;;;;;;;26.60;18.67;;;;;;;6.13;100.00;96192.28;5118724;28;20237;-43
2022/03/16 09:05:29;;;;;;;25.70;19.03;;;;;;;6.16;100.00;96195.06;5118464;28;20203;-43
2022/03/16 09:07:55;;;;;;;27.30;18.73;;;;;;;6.13;100.00;96195.00;5119067;28;20182;-45
2022/03/16 09:10:20;;;;;;;27.37;18.97;;;;;;;6.12;100.00;96190.72;5118712;28;20204;-43
2022/03/16 09:12:46;;;;;;;25.70;17.73;;;;;;;6.09;100.00;96196.84;5118466;28;20188;-44
2022/03/16 09:15:12;;;;;;;26.50;18.43;;;;;;;6.04;100.00;96195.19;5118524;28;20186;-49
2022/03/16 09:17:37;;;;;;;23.23;16.77;;;;;;;6.08;100.00;96193.34;5118562;28;20558;-55
2022/03/16 09:20:03;;;;;;;24.90;17.47;;;;;;;6.13;100.00;96186.88;5118428;28;20186;-54
2022/03/16 09:22:29;;;;;;;24.80;17.67;;;;;;;6.16;100.00;96183.44;5118400;28;20179;-54
2022/03/16 09:24:56;;;;;;;24.93;18.60;;;;;;;6.27;100.00;96184.47;5118499;28;20236;-52
2022/03/16 09:27:22;;;;;;;24.93;17.60;;;;;;;6.27;100.00;96187.16;5118265;28;20183;-53
2022/03/16 09:29:47;;;;;;;29.77;18.10;;;;;;;6.32;100.00;96179.53;5118322;28;20236;-55
2022/03/16 09:32:14;;;;;;;23.93;17.03;;;;;;;6.47;100.00;96175.97;5118378;28;20619;-55
2022/03/16 09:34:40;;;;;;;26.80;18.37;;;;;;;6.59;100.00;96177.72;5118091;28;20262;-49
2022/03/16 09:37:07;;;;;;;25.50;17.90;;;;;;;6.74;100.00;96176.88;5118269;28;20221;-54
2022/03/16 09:39:36;;;;;;;27.17;19.10;;;;;;;6.88;100.00;96181.78;5118260;28;20212;-50
2022/03/16 09:42:04;;;;;;;27.03;18.80;;;;;;;6.88;100.00;96176.34;5117918;28;20255;-50
2022/03/16 09:44:30;;;;;;;26.90;18.77;;;;;;;6.92;100.00;96179.91;5135244;28;20248;-48
2022/03/16 09:46:57;;;;;;;25.83;19.20;;;;;;;6.75;100.00;96181.16;5118432;28;20184;-51
2022/03/16 09:49:23;;;;;;;25.50;17.83;;;;;;;6.62;100.00;96187.88;5118585;28;20183;-50
2022/03/16 09:51:50;;;;;;;29.00;18.77;;;;;;;6.71;100.00;96191.16;5118007;28;20543;-48
2022/03/16 09:54:16;;;;;;;27.00;18.67;;;;;;;6.56;100.00;96186.59;5118540;28;20329;-50
2022/03/16 09:56:43;;;;;;;26.10;18.60;;;;;;;6.49;100.00;96184.50;5118031;28;20207;-55
2022/03/16 09:59:10;;;;;;;26.83;18.90;;;;;;;6.54;100.00;96180.75;5117930;28;20274;-55
2022/03/16 10:01:35;;;;;;;25.20;17.27;;;;;;;6.45;100.00;96182.91;5118186;27;20209;-52
2022/03/16 10:04:05;;;;;;;24.17;16.83;;;;;;;6.51;100.00;96186.88;5118026;28;20599;-50
2022/03/16 10:06:31;;;;;;;26.23;18.40;;;;;;;6.66;100.00;96169.72;5117811;28;20191;-53
2022/03/16 10:14:24;;;;;;;26.17;18.70;;;;;;;6.52;100.00;96166.75;5136365;28;20195;-51
2022/03/16 10:19:51;;;;;;;28.13;18.23;;;;;;;6.60;100.00;96163.03;5136182;28;20196;-48
2022/03/16 10:22:28;;;;;;;26.17;18.37;;;;;;;6.63;100.00;96165.03;5117407;28;20588;-44
2022/03/16 10:25:05;;;;;;;24.87;17.57;;;;;;;6.67;100.00;96163.19;5117955;28;20281;-44
2022/03/16 10:27:36;;;;;;;24.73;17.27;;;;;;;6.68;100.00;96164.75;5118175;28;20232;-59
2022/03/16 10:30:05;;;;;;;24.33;16.60;;;;;;;6.70;100.00;96163.22;5117695;28;20196;-54
2022/03/16 10:32:31;;;;;;;25.47;17.90;;;;;;;6.82;100.00;96159.59;5117763;28;20183;-53
2022/03/16 10:34:57;;;;;;;24.87;17.63;;;;;;;6.93;100.00;96163.28;5117592;28;20231;-51
2022/03/16 10:37:24;;;;;;;25.07;17.70;;;;;;;6.99;100.00;96164.53;5117322;28;20187;-54
2022/03/16 10:39:51;;;;;;;24.97;18.33;;;;;;;6.88;100.00;96166.25;5117497;28;20176;-48
2022/03/16 10:48:00;;;;;;;24.97;18.10;;;;;;;6.86;100.00;96172.06;5134559;27;20233;-59
2022/03/16 10:50:25;;;;;;;24.17;16.57;;;;;;;7.02;100.00;96174.66;5117034;28;20230;-60
2022/03/16 10:52:55;;;;;;;26.43;18.23;;;;;;;6.90;100.00;96169.41;5116948;28;20187;-61
2022/03/16 10:55:22;;;;;;;26.80;18.60;;;;;;;6.92;100.00;96158.97;5117003;28;20179;-59
2022/03/16 10:57:51;;;;;;;27.13;18.97;;;;;;;6.97;100.00;96149.75;5117192;28;20171;-59
2022/03/16 11:00:17;;;;;;;29.97;19.67;;;;;;;7.09;100.00;96146.84;5116946;28;20185;-58
2022/03/16 11:02:45;;;;;;;28.17;19.57;;;;;;;7.02;100.00;96141.31;5117476;28;20258;-57
2022/03/16 11:05:10;;;;;;;26.07;18.77;;;;;;;6.89;100.00;96143.44;5116761;28;20183;-53
2022/03/16 11:07:38;;;;;;;28.60;19.87;;;;;;;6.90;100.00;96144.97;5116925;28;20210;-58
2022/03/16 11:10:04;;;;;;;26.90;19.77;;;;;;;6.87;100.00;96145.69;5117423;28;20285;-59
2022/03/16 11:15:17;;;;;;;31.23;20.53;;;;;;;7.27;100.00;96137.06;5135298;28;20208;-60
2022/03/16 11:17:43;;;;;;;28.93;20.03;;;;;;;7.37;100.00;96141.91;5116761;28;20186;-62
2022/03/16 11:20:10;;;;;;;27.70;19.43;;;;;;;7.43;100.00;96146.66;5116907;28;20179;-59
2022/03/16 11:25:34;;;;;;;31.63;19.40;;;;;;;7.52;100.00;96144.47;5135026;28;20254;-45
2022/03/16 11:28:05;;;;;;;26.93;20.13;;;;;;;7.66;100.00;96133.84;5116923;28;20215;-62
2022/03/16 11:30:37;;;;;;;24.97;17.43;;;;;;;7.92;100.00;96131.09;5116654;28;20203;-63
2022/03/16 11:33:11;;;;;;;25.80;18.47;;;;;;;8.06;100.00;96125.84;5116488;28;20192;-63